Terminal Aerodrome Forecast
Issued by NWS Corpus Christi, TX

Current Version | Previous Version | Text Only | Print | Product List | Glossary Off
Versions: 1 2 3 4 5 6 7 8 9 10 11 12

099
FTUS44 KCRP 092323
TAFCRP
TAF
KCRP 092323Z 1000/1024 VRB04KT P6SM SKC
     FM101600 23008G15KT P6SM SKC=

USA.gov is the U.S. government's official web portal to all federal, state and local government web resources and services.